Time;durP1;ratioP1;P1;durP2;ratioP2;P2;SDS_P1;SDS_P2;PMS_P1;PMS_P2;Temp;Humidity;BMP_temperature;BMP_pressure;BME280_temperature;BME280_humidity;BME280_pressure;Samples;Min_cycle;Max_cycle;Signal;HPM_P1;HPM_P2
2022/04/24 00:02:25;;;;;;;7.45;5.55;;;9.80;99.90;;;;;;5091684;28;20076;-72
2022/04/24 00:04:51;;;;;;;5.70;4.07;;;9.80;99.90;;;;;;5079360;28;20046;-72
2022/04/24 00:07:17;;;;;;;6.43;5.40;;;9.80;99.90;;;;;;5090473;28;20039;-73
2022/04/24 00:09:43;;;;;;;5.63;4.50;;;9.80;99.90;;;;;;5091640;28;21452;-73
2022/04/24 00:12:15;;;;;;;5.60;5.00;;;9.80;99.90;;;;;;5088468;28;20058;-73
2022/04/24 00:14:42;;;;;;;8.20;4.95;;;9.70;99.90;;;;;;5095642;28;20039;-72
2022/04/24 00:17:07;;;;;;;6.78;5.05;;;9.60;99.90;;;;;;5110488;28;20051;-73
2022/04/24 00:19:33;;;;;;;6.82;4.70;;;9.60;99.90;;;;;;5073788;28;20070;-72
2022/04/24 00:21:58;;;;;;;5.68;4.32;;;9.60;99.90;;;;;;5084490;28;20039;-72
2022/04/24 00:24:25;;;;;;;6.70;4.88;;;9.60;99.90;;;;;;5102883;28;20039;-73
2022/04/24 00:26:54;;;;;;;;;;;9.50;99.90;;;;;;5102309;28;20028;-72
2022/04/24 00:29:21;;;;;;;6.80;4.72;;;9.50;99.90;;;;;;5086379;28;19930;-73
2022/04/24 00:31:47;;;;;;;5.43;4.68;;;9.50;99.90;;;;;;5099530;28;20123;-72
2022/04/24 00:34:12;;;;;;;5.43;4.30;;;9.50;99.90;;;;;;5089711;28;20131;-72
2022/04/24 00:36:38;;;;;;;7.93;4.72;;;9.50;99.90;;;;;;5090788;28;20048;-76
2022/04/24 00:39:05;;;;;;;6.35;4.30;;;9.40;99.90;;;;;;5096681;28;20428;-76
2022/04/24 00:41:30;;;;;;;;;;;9.40;99.90;;;;;;5091422;28;20072;-76
2022/04/24 00:43:56;;;;;;;4.95;4.32;;;9.40;99.90;;;;;;5087050;28;20041;-76
2022/04/24 00:46:35;;;;;;;5.60;4.82;;;9.40;99.90;;;;;;5107980;28;20135;-77
2022/04/24 00:49:01;;;;;;;6.18;4.70;;;9.40;99.90;;;;;;5073659;28;20035;-76
2022/04/24 00:51:28;;;;;;;5.95;4.78;;;9.40;99.90;;;;;;5088742;28;20096;-76
2022/04/24 00:53:55;;;;;;;6.78;4.70;;;9.30;99.90;;;;;;5090458;28;20451;-76
2022/04/24 00:56:23;;;;;;;6.30;5.03;;;9.30;99.90;;;;;;5072620;28;20126;-76
2022/04/24 00:58:50;;;;;;;4.97;4.18;;;9.30;99.90;;;;;;5103477;28;20118;-77
2022/04/24 01:01:16;;;;;;;6.10;5.22;;;9.30;99.90;;;;;;5053994;28;20048;-76
2022/04/24 01:03:42;;;;;;;6.07;5.28;;;9.30;99.90;;;;;;5080756;28;20119;-76
2022/04/24 01:06:08;;;;;;;5.43;4.70;;;9.30;99.90;;;;;;5087620;28;20395;-76
2022/04/24 01:08:36;;;;;;;7.20;4.50;;;9.30;99.90;;;;;;5103705;28;20043;-77
2022/04/24 01:11:02;;;;;;;5.63;4.85;;;9.20;99.90;;;;;;5071399;28;20398;-76
2022/04/24 01:13:28;;;;;;;5.53;4.97;;;9.20;99.90;;;;;;5100119;28;20039;-76
2022/04/24 01:15:57;;;;;;;6.45;5.07;;;9.20;99.90;;;;;;5088355;28;20409;-76
2022/04/24 01:18:25;;;;;;;5.32;4.57;;;9.20;99.90;;;;;;5087713;28;20055;-76
2022/04/24 01:20:51;;;;;;;7.85;5.80;;;9.10;99.90;;;;;;5091773;28;20044;-76
2022/04/24 01:23:18;;;;;;;6.78;5.25;;;9.20;99.90;;;;;;5088199;28;20044;-73
2022/04/24 01:25:43;;;;;;;7.57;5.50;;;9.10;99.90;;;;;;5087727;28;20055;-73
2022/04/24 01:28:10;;;;;;;5.43;4.25;;;9.10;99.90;;;;;;5087782;28;20119;-72
2022/04/24 01:30:36;;;;;;;7.00;5.07;;;9.10;99.90;;;;;;5098279;28;20495;-73
2022/04/24 01:33:03;;;;;;;7.03;5.60;;;9.10;99.90;;;;;;5079044;28;20083;-73
2022/04/24 01:35:30;;;;;;;7.85;5.10;;;9.00;99.90;;;;;;5096297;28;20170;-72
2022/04/24 01:37:58;;;;;;;5.95;5.35;;;9.10;99.90;;;;;;5101975;28;20401;-72
2022/04/24 01:40:25;;;;;;;5.90;5.03;;;9.00;99.90;;;;;;5095476;28;20058;-72
2022/04/24 01:42:51;;;;;;;6.82;4.85;;;9.00;99.90;;;;;;5103477;28;20040;-73
2022/04/24 01:45:16;;;;;;;5.72;4.28;;;9.00;99.90;;;;;;5096563;28;20047;-73
2022/04/24 01:47:42;;;;;;;6.70;4.60;;;8.90;99.90;;;;;;5101509;28;20126;-73
2022/04/24 01:50:08;;;;;;;5.53;4.80;;;8.90;99.90;;;;;;5070839;28;20036;-73
2022/04/24 01:52:33;;;;;;;6.22;4.30;;;8.90;99.90;;;;;;5072608;28;20083;-73
2022/04/24 01:54:59;;;;;;;6.13;4.93;;;8.80;99.90;;;;;;5088424;28;20043;-73
2022/04/24 01:57:25;;;;;;;4.70;4.10;;;8.80;99.90;;;;;;5039253;28;20044;-73
2022/04/24 01:59:50;;;;;;;4.60;4.10;;;8.70;99.90;;;;;;5071674;28;20046;-73
2022/04/24 02:02:16;;;;;;;6.00;5.18;;;8.70;99.90;;;;;;5068779;28;20048;-73
2022/04/24 02:04:42;;;;;;;6.65;5.63;;;8.60;99.90;;;;;;5087088;28;20039;-73
2022/04/24 02:07:08;;;;;;;6.07;4.97;;;8.60;99.90;;;;;;5088564;28;20047;-73
2022/04/24 02:09:34;;;;;;;5.78;5.00;;;8.50;99.90;;;;;;5088178;28;20113;-73
2022/04/24 02:12:00;;;;;;;6.22;5.60;;;8.40;99.90;;;;;;5088326;28;20146;-73
2022/04/24 02:14:25;;;;;;;6.85;6.03;;;8.40;99.90;;;;;;5071687;28;20494;-73
2022/04/24 02:16:51;;;;;;;6.47;5.40;;;8.40;99.90;;;;;;5089405;28;20071;-73
2022/04/24 02:19:17;;;;;;;6.22;5.28;;;8.30;99.90;;;;;;5066232;28;20032;-73
2022/04/24 02:21:42;;;;;;;7.72;5.70;;;8.20;99.90;;;;;;5068963;28;20125;-73
2022/04/24 02:24:08;;;;;;;6.18;5.30;;;8.20;99.90;;;;;;5079743;28;20040;-73
2022/04/24 02:26:34;;;;;;;6.05;5.22;;;8.10;99.90;;;;;;5091851;28;20048;-73
2022/04/24 02:28:59;;;;;;;6.93;5.95;;;8.10;99.90;;;;;;5070712;28;20048;-74
2022/04/24 02:31:26;;;;;;;6.75;5.50;;;8.00;99.90;;;;;;5107977;28;20075;-72
2022/04/24 02:33:52;;;;;;;6.78;5.60;;;8.00;99.90;;;;;;5071997;28;20051;-73
2022/04/24 02:36:18;;;;;;;6.55;5.82;;;8.00;99.90;;;;;;5083165;28;20039;-73
2022/04/24 02:38:43;;;;;;;8.20;6.80;;;8.00;99.90;;;;;;5077693;28;20051;-72
2022/04/24 02:41:09;;;;;;;7.03;6.00;;;8.00;99.90;;;;;;5099111;28;20044;-72
2022/04/24 02:43:35;;;;;;;7.00;5.63;;;7.90;99.90;;;;;;5096081;28;20075;-73
2022/04/24 02:46:01;;;;;;;6.22;5.25;;;7.90;99.90;;;;;;5090994;28;20062;-73
2022/04/24 02:48:27;;;;;;;8.77;6.03;;;7.90;99.90;;;;;;5099257;28;20493;-73
2022/04/24 02:50:54;;;;;;;6.45;5.60;;;7.80;99.90;;;;;;5083212;28;20476;-72
2022/04/24 02:53:19;;;;;;;5.93;5.07;;;7.80;99.90;;;;;;5094363;28;20096;-72
2022/04/24 02:55:45;;;;;;;7.40;6.28;;;7.80;99.90;;;;;;5090898;28;20071;-72
2022/04/24 02:58:10;;;;;;;8.70;6.38;;;7.80;99.90;;;;;;5091341;28;20067;-72
2022/04/24 03:00:50;;;;;;;6.45;5.20;;;7.80;99.90;;;;;;5106423;28;20043;-72
2022/04/24 03:03:19;;;;;;;10.07;6.05;;;7.70;99.90;;;;;;5081607;28;20036;-73
2022/04/24 03:05:49;;;;;;;7.55;6.53;;;7.70;99.90;;;;;;5081804;28;20032;-72
2022/04/24 03:08:19;;;;;;;8.00;6.32;;;7.70;99.90;;;;;;5074626;28;20115;-73
2022/04/24 03:10:45;;;;;;;8.07;6.78;;;7.70;99.90;;;;;;5102359;28;20051;-73
2022/04/24 03:13:11;;;;;;;7.55;6.00;;;7.60;99.90;;;;;;5103315;28;20148;-71
2022/04/24 03:15:38;;;;;;;8.18;6.85;;;7.60;99.90;;;;;;5107447;28;20120;-72
2022/04/24 03:18:05;;;;;;;8.20;6.70;;;7.60;99.90;;;;;;5074902;28;20127;-73
2022/04/24 03:20:31;;;;;;;7.50;6.10;;;7.70;99.90;;;;;;5090242;28;20040;-73
2022/04/24 03:22:56;;;;;;;8.73;6.53;;;7.60;99.90;;;;;;5094334;28;20042;-73
2022/04/24 03:25:22;;;;;;;7.22;5.88;;;7.60;99.90;;;;;;5088890;28;20083;-73
2022/04/24 03:27:48;;;;;;;10.27;6.78;;;7.60;99.90;;;;;;5076673;28;20036;-73
2022/04/24 03:30:14;;;;;;;6.97;5.63;;;7.60;99.90;;;;;;5092841;28;20040;-73
2022/04/24 03:32:40;;;;;;;6.90;6.03;;;7.50;99.90;;;;;;5092082;28;20090;-74
2022/04/24 03:35:09;;;;;;;8.52;5.95;;;7.50;99.90;;;;;;5077155;28;20055;-74
2022/04/24 03:37:36;;;;;;;8.32;6.30;;;7.50;99.90;;;;;;5092289;28;20059;-73
2022/04/24 03:40:03;;;;;;;7.53;5.85;;;7.50;99.90;;;;;;5091511;28;20541;-73
2022/04/24 03:42:28;;;;;;;8.85;5.63;;;7.50;99.90;;;;;;5078519;28;20047;-72
2022/04/24 03:44:55;;;;;;;8.52;6.60;;;7.50;99.90;;;;;;5083182;28;20063;-73
2022/04/24 03:47:21;;;;;;;7.82;6.43;;;7.40;99.90;;;;;;5079602;28;20044;-73
2022/04/24 03:49:47;;;;;;;7.43;6.10;;;7.40;99.90;;;;;;5090042;28;20089;-73
2022/04/24 03:52:13;;;;;;;8.73;5.88;;;7.40;99.90;;;;;;5083751;28;20092;-72
2022/04/24 03:54:39;;;;;;;7.85;5.85;;;7.40;99.90;;;;;;5096743;28;20108;-73
2022/04/24 03:57:04;;;;;;;7.18;6.07;;;7.30;99.90;;;;;;5097992;28;20055;-73
2022/04/24 03:59:30;;;;;;;7.45;6.40;;;7.30;99.90;;;;;;5058624;28;20443;-73
2022/04/24 04:01:56;;;;;;;7.57;6.35;;;7.30;99.90;;;;;;5086174;28;20078;-73
2022/04/24 04:04:22;;;;;;;9.10;6.35;;;7.30;99.90;;;;;;5087981;28;20036;-73
2022/04/24 04:06:47;;;;;;;8.77;6.10;;;7.30;99.90;;;;;;5104575;28;20031;-77
2022/04/24 04:09:13;;;;;;;8.32;5.80;;;7.30;99.90;;;;;;5090444;28;20055;-77
2022/04/24 04:11:39;;;;;;;9.75;6.45;;;7.30;99.90;;;;;;5086056;28;20042;-77
2022/04/24 04:14:05;;;;;;;7.88;5.78;;;7.30;99.90;;;;;;5105143;28;20050;-77
2022/04/24 04:16:31;;;;;;;8.63;5.70;;;7.20;99.90;;;;;;5052741;28;20045;-77
2022/04/24 04:18:57;;;;;;;7.38;5.55;;;7.20;99.90;;;;;;5054969;28;20105;-76
2022/04/24 04:21:22;;;;;;;5.75;4.90;;;7.20;99.90;;;;;;5091495;28;20040;-77
2022/04/24 04:23:48;;;;;;;8.18;6.38;;;7.10;99.90;;;;;;5090418;28;20486;-77
2022/04/24 04:26:17;;;;;;;9.70;6.68;;;7.10;99.90;;;;;;5074444;28;20043;-77
2022/04/24 04:28:46;;;;;;;9.32;6.10;;;7.10;99.90;;;;;;5073108;28;20032;-77
2022/04/24 04:31:15;;;;;;;6.85;5.80;;;7.20;99.90;;;;;;5073956;28;20638;-77
2022/04/24 04:33:41;;;;;;;6.88;5.45;;;7.10;99.90;;;;;;5073295;28;20513;-77
2022/04/24 04:36:08;;;;;;;7.38;5.47;;;7.10;99.90;;;;;;5091296;28;20080;-77
2022/04/24 04:38:33;;;;;;;7.90;6.05;;;7.10;99.90;;;;;;5106828;28;20054;-77
2022/04/24 04:40:59;;;;;;;8.90;5.80;;;7.10;99.90;;;;;;5089221;28;20032;-76
2022/04/24 04:43:26;;;;;;;6.88;5.82;;;7.10;99.90;;;;;;5088464;28;20052;-76
2022/04/24 04:45:52;;;;;;;6.55;5.50;;;7.10;99.90;;;;;;5071471;28;20445;-76
2022/04/24 04:48:18;;;;;;;8.25;5.68;;;7.10;99.90;;;;;;5081288;28;20048;-77
2022/04/24 04:50:44;;;;;;;7.68;5.68;;;7.20;99.90;;;;;;5081309;28;20093;-74
2022/04/24 04:53:10;;;;;;;7.20;5.70;;;7.20;99.90;;;;;;5087538;28;20096;-73
2022/04/24 04:55:35;;;;;;;7.57;6.18;;;7.20;99.90;;;;;;5098243;28;20127;-74
2022/04/24 04:58:01;;;;;;;6.68;5.20;;;7.20;99.90;;;;;;5088727;28;20047;-74
2022/04/24 05:00:27;;;;;;;7.28;5.40;;;7.30;99.90;;;;;;5095926;28;20055;-74
2022/04/24 05:02:53;;;;;;;6.15;5.25;;;7.30;99.90;;;;;;5098701;28;20228;-74
2022/04/24 05:05:19;;;;;;;8.55;6.25;;;7.30;99.90;;;;;;5066189;28;20226;-73
2022/04/24 05:07:44;;;;;;;9.73;6.50;;;7.30;99.90;;;;;;5093879;28;20126;-74
2022/04/24 05:10:10;;;;;;;8.75;6.35;;;7.40;99.90;;;;;;5095026;28;20044;-74
2022/04/24 05:12:36;;;;;;;8.55;6.40;;;7.40;99.90;;;;;;5090490;28;20071;-73
2022/04/24 05:15:07;;;;;;;7.32;6.35;;;7.40;99.90;;;;;;5092961;28;20043;-73
2022/04/24 05:17:34;;;;;;;8.02;5.80;;;7.40;99.90;;;;;;5094168;28;20043;-74
2022/04/24 05:20:01;;;;;;;7.45;6.05;;;7.40;99.90;;;;;;5079000;28;20059;-74
2022/04/24 05:22:27;;;;;;;7.90;5.88;;;7.40;99.90;;;;;;5089797;28;20469;-73
2022/04/24 05:24:52;;;;;;;8.25;6.38;;;7.40;99.90;;;;;;5070611;28;20047;-73
2022/04/24 05:27:19;;;;;;;9.63;6.30;;;7.40;99.90;;;;;;5089759;28;20496;-77
2022/04/24 05:29:45;;;;;;;10.40;7.25;;;7.50;99.90;;;;;;5089581;28;20040;-77
2022/04/24 05:32:11;;;;;;;9.25;6.68;;;7.50;99.90;;;;;;5088289;28;20071;-77
2022/04/24 05:34:37;;;;;;;8.98;6.32;;;7.50;99.90;;;;;;5089225;28;20110;-78
2022/04/24 05:37:04;;;;;;;9.00;6.63;;;7.50;99.90;;;;;;5093868;28;20031;-78
2022/04/24 05:39:29;;;;;;;6.72;5.57;;;7.50;99.90;;;;;;5076481;28;20047;-77
2022/04/24 05:41:55;;;;;;;9.03;5.97;;;7.60;99.90;;;;;;5087908;28;20119;-77
2022/04/24 05:44:21;;;;;;;10.82;7.32;;;7.60;99.90;;;;;;5041128;28;20346;-77
2022/04/24 05:46:46;;;;;;;9.68;6.25;;;7.70;99.90;;;;;;5075376;28;20139;-78
2022/04/24 05:49:12;;;;;;;9.65;7.10;;;7.70;99.90;;;;;;5070068;28;20050;-78
2022/04/24 05:51:38;;;;;;;8.82;6.55;;;7.80;99.90;;;;;;5089720;28;20446;-77
2022/04/24 05:54:03;;;;;;;7.70;5.97;;;7.80;99.90;;;;;;5097253;28;20040;-77
2022/04/24 05:56:29;;;;;;;8.45;6.80;;;7.90;99.90;;;;;;5086118;28;20114;-78
2022/04/24 05:58:55;;;;;;;11.45;7.53;;;8.00;99.90;;;;;;5072934;28;20111;-77
2022/04/24 06:01:20;;;;;;;9.38;7.13;;;8.10;99.90;;;;;;5085662;28;20102;-77
2022/04/24 06:03:47;;;;;;;10.38;6.00;;;8.40;99.90;;;;;;5073695;28;20036;-77
2022/04/24 06:06:13;;;;;;;8.85;6.15;;;8.70;99.90;;;;;;5081196;28;20491;-77
2022/04/24 06:08:39;;;;;;;10.70;6.57;;;9.00;99.90;;;;;;5078599;28;20048;-77
2022/04/24 06:11:06;;;;;;;8.10;5.97;;;9.40;99.90;;;;;;5054864;28;20475;-77
2022/04/24 06:13:32;;;;;;;9.00;5.93;;;9.80;99.90;;;;;;5079052;28;20135;-77
2022/04/24 06:15:57;;;;;;;8.77;5.65;;;10.00;99.90;;;;;;5086666;28;20119;-77
2022/04/24 06:18:25;;;;;;;6.43;4.93;;;10.30;99.90;;;;;;5078189;28;20056;-78
2022/04/24 06:20:51;;;;;;;7.15;5.45;;;10.50;99.90;;;;;;5067712;28;20044;-77
2022/04/24 06:23:17;;;;;;;8.18;5.03;;;10.70;99.90;;;;;;5085097;28;20036;-77
2022/04/24 06:25:42;;;;;;;5.97;4.63;;;10.80;99.90;;;;;;5060299;28;20037;-77
2022/04/24 06:28:08;;;;;;;5.22;4.22;;;11.00;99.90;;;;;;5092645;28;20123;-78
2022/04/24 06:30:40;;;;;;;10.18;4.72;;;11.20;99.90;;;;;;5080899;28;20051;-78
2022/04/24 06:33:10;;;;;;;7.20;4.18;;;11.20;99.90;;;;;;5083827;28;20043;-77
2022/04/24 06:35:36;;;;;;;8.13;4.40;;;11.30;99.90;;;;;;5078192;28;20040;-76
2022/04/24 06:38:02;;;;;;;6.25;4.40;;;11.30;99.90;;;;;;5084603;28;20055;-77
2022/04/24 06:40:28;;;;;;;5.95;4.00;;;11.30;99.90;;;;;;5073064;28;20040;-79
2022/04/24 06:42:55;;;;;;;4.00;3.10;;;11.40;99.90;;;;;;5088450;28;20984;-79
2022/04/24 06:45:28;;;;;;;5.47;3.40;;;11.50;99.90;;;;;;5071496;28;20071;-78
2022/04/24 06:47:59;;;;;;;6.07;3.13;;;11.50;99.90;;;;;;5089996;28;20461;-77
2022/04/24 06:50:26;;;;;;;5.85;3.47;;;11.60;99.90;;;;;;5093211;28;20352;-77
2022/04/24 06:52:57;;;;;;;5.40;3.05;;;11.80;99.90;;;;;;5090168;28;20082;-78
2022/04/24 06:55:23;;;;;;;4.80;3.20;;;11.80;99.90;;;;;;5092404;28;20044;-77
2022/04/24 06:57:51;;;;;;;;;;;11.80;99.90;;;;;;5091623;28;20048;-77
2022/04/24 07:00:18;;;;;;;4.78;2.67;;;12.00;99.90;;;;;;5092447;28;19927;-78
2022/04/24 07:02:44;;;;;;;4.63;2.50;;;12.10;99.90;;;;;;5074774;28;20372;-77
2022/04/24 07:05:10;;;;;;;4.15;2.38;;;12.20;99.90;;;;;;5093891;28;20078;-77
2022/04/24 07:07:35;;;;;;;3.67;2.15;;;12.50;99.90;;;;;;5091918;28;20040;-77
2022/04/24 07:10:01;;;;;;;3.03;2.20;;;12.80;99.90;;;;;;5091513;28;20158;-77
2022/04/24 07:12:27;;;;;;;3.88;2.40;;;12.90;99.90;;;;;;5091713;28;20483;-77
2022/04/24 07:14:52;;;;;;;4.13;2.25;;;12.70;99.00;;;;;;5075005;28;20052;-77
2022/04/24 07:17:18;;;;;;;3.22;2.10;;;12.80;99.90;;;;;;5075097;28;20055;-78
2022/04/24 07:19:44;;;;;;;4.75;2.10;;;12.90;99.40;;;;;;5092249;28;20055;-78
2022/04/24 07:22:10;;;;;;;3.22;2.05;;;13.00;99.30;;;;;;5090114;28;20050;-77
2022/04/24 07:24:35;;;;;;;3.13;1.75;;;13.10;98.10;;;;;;5090310;28;20047;-77
2022/04/24 07:27:01;;;;;;;2.58;1.60;;;13.30;98.40;;;;;;5091381;28;20040;-78
2022/04/24 07:29:27;;;;;;;3.45;2.10;;;13.40;97.30;;;;;;5089612;28;20117;-77
2022/04/24 07:31:53;;;;;;;3.83;2.20;;;13.50;97.00;;;;;;5090065;28;20036;-76
2022/04/24 07:34:18;;;;;;;;;;;13.50;97.40;;;;;;5074229;28;20105;-76
2022/04/24 07:36:44;;;;;;;3.33;2.00;;;13.70;97.10;;;;;;5091416;28;20356;-76
2022/04/24 07:39:10;;;;;;;3.28;2.05;;;13.60;96.60;;;;;;5088881;28;20136;-76
2022/04/24 07:41:36;;;;;;;3.17;1.80;;;13.60;96.10;;;;;;5091716;28;20048;-76
2022/04/24 07:44:02;;;;;;;2.22;1.58;;;13.80;96.10;;;;;;5089506;28;20048;-77
2022/04/24 07:46:34;;;;;;;5.20;2.08;;;14.00;96.20;;;;;;5091145;28;20131;-77
2022/04/24 07:49:00;;;;;;;2.83;1.85;;;14.00;95.80;;;;;;5075160;28;20119;-76
2022/04/24 07:51:26;;;;;;;3.33;1.92;;;13.90;95.50;;;;;;5073103;28;20395;-74
2022/04/24 07:53:51;;;;;;;3.97;2.00;;;13.90;95.90;;;;;;5074540;28;20040;-77
2022/04/24 07:56:17;;;;;;;2.75;2.00;;;14.00;95.80;;;;;;5076819;28;20127;-79
2022/04/24 07:58:43;;;;;;;3.25;2.38;;;14.20;95.30;;;;;;5081447;28;20509;-76
2022/04/24 08:01:11;;;;;;;3.08;1.92;;;14.20;95.20;;;;;;5085164;28;20083;-77
2022/04/24 08:03:36;;;;;;;3.20;2.13;;;14.20;94.80;;;;;;5087873;28;20531;-76
2022/04/24 08:06:03;;;;;;;;;;;14.10;94.50;;;;;;5086330;28;20036;-76
2022/04/24 08:08:28;;;;;;;3.38;2.08;;;14.10;95.30;;;;;;5095920;28;19943;-76
2022/04/24 08:10:56;;;;;;;3.78;2.20;;;14.10;94.70;;;;;;5097490;28;20481;-77
2022/04/24 08:13:24;;;;;;;3.67;2.15;;;14.20;95.00;;;;;;5071718;28;20552;-76
2022/04/24 08:15:50;;;;;;;3.13;2.03;;;14.20;94.40;;;;;;5055890;28;20040;-77
2022/04/24 08:18:17;;;;;;;2.55;1.75;;;14.30;94.30;;;;;;5079238;28;20080;-77
2022/04/24 08:20:43;;;;;;;2.90;2.08;;;14.50;94.80;;;;;;5082544;28;20376;-76
2022/04/24 08:23:10;;;;;;;3.08;1.60;;;14.60;94.90;;;;;;5077654;28;20100;-76
2022/04/24 08:25:37;;;;;;;4.32;2.40;;;14.70;94.30;;;;;;5088615;28;20032;-77
2022/04/24 08:28:08;;;;;;;3.53;2.00;;;14.60;93.50;;;;;;5084631;28;20035;-75
2022/04/24 08:30:36;;;;;;;3.33;2.08;;;14.60;93.40;;;;;;5088403;28;20048;-76
2022/04/24 08:33:01;;;;;;;3.33;1.90;;;14.80;94.20;;;;;;5073246;28;20405;-76
2022/04/24 08:35:27;;;;;;;3.58;2.25;;;14.80;94.50;;;;;;5088251;28;20127;-75
2022/04/24 08:37:53;;;;;;;4.85;2.25;;;14.80;94.30;;;;;;5090762;28;20040;-77
2022/04/24 08:40:21;;;;;;;3.28;2.00;;;14.90;94.20;;;;;;5089302;28;20058;-76
2022/04/24 08:42:47;;;;;;;2.40;1.85;;;15.00;93.90;;;;;;5073978;28;20036;-76
2022/04/24 08:45:15;;;;;;;4.18;2.25;;;15.20;93.40;;;;;;5087296;28;20121;-76
2022/04/24 08:47:42;;;;;;;3.33;1.85;;;15.10;93.00;;;;;;5072144;28;20032;-76
2022/04/24 08:50:08;;;;;;;3.35;1.80;;;15.30;93.00;;;;;;5072678;28;20050;-75
2022/04/24 08:52:34;;;;;;;3.22;1.90;;;15.50;93.40;;;;;;5056522;28;20082;-76
2022/04/24 08:55:02;;;;;;;3.97;2.03;;;15.50;92.80;;;;;;5072411;28;20491;-76
2022/04/24 08:57:30;;;;;;;2.58;1.80;;;15.70;92.40;;;;;;5090628;28;20048;-74
2022/04/24 09:00:04;;;;;;;5.10;1.88;;;15.80;92.30;;;;;;5087910;28;20398;-74
2022/04/24 09:02:30;;;;;;;4.68;2.20;;;15.70;92.50;;;;;;5074966;28;20084;-73
2022/04/24 09:04:56;;;;;;;4.90;2.63;;;15.80;93.00;;;;;;5073793;28;20067;-73
2022/04/24 09:07:29;;;;;;;3.97;2.35;;;15.50;92.40;;;;;;5090794;28;20089;-74
2022/04/24 09:09:55;;;;;;;3.38;2.15;;;15.40;92.90;;;;;;5088770;28;20035;-75
2022/04/24 09:12:25;;;;;;;3.80;2.30;;;15.50;93.30;;;;;;5091281;28;20143;-74
2022/04/24 09:14:53;;;;;;;4.28;2.42;;;15.50;92.60;;;;;;5089459;28;20040;-74
2022/04/24 09:17:24;;;;;;;5.10;2.60;;;15.70;92.90;;;;;;5089361;28;20044;-75
2022/04/24 09:19:50;;;;;;;5.82;2.28;;;15.90;92.50;;;;;;5090714;28;20052;-74
2022/04/24 09:22:17;;;;;;;4.75;2.28;;;15.90;92.60;;;;;;5087082;28;20042;-73
2022/04/24 09:24:59;;;;;;;4.63;2.67;;;15.80;92.00;;;;;;5087855;28;20445;-74
2022/04/24 09:27:28;;;;;;;5.88;3.17;;;15.60;92.20;;;;;;5087920;28;20079;-75
2022/04/24 09:30:00;;;;;;;6.70;2.80;;;15.50;92.70;;;;;;5082500;28;20043;-76
2022/04/24 09:32:28;;;;;;;4.78;2.38;;;15.30;92.40;;;;;;5088445;28;20040;-76
2022/04/24 09:34:54;;;;;;;3.65;2.20;;;15.50;92.60;;;;;;5089829;28;20040;-76
2022/04/24 09:37:20;;;;;;;4.25;2.10;;;15.80;92.10;;;;;;5085689;28;20044;-75
2022/04/24 09:39:48;;;;;;;4.20;2.50;;;15.90;91.50;;;;;;5089776;28;20482;-75
2022/04/24 09:42:16;;;;;;;4.07;2.25;;;15.90;91.00;;;;;;5086947;28;20114;-76
2022/04/24 09:44:48;;;;;;;4.38;2.20;;;15.90;91.10;;;;;;5088251;28;20102;-77
2022/04/24 09:47:17;;;;;;;5.47;2.20;;;16.00;91.00;;;;;;5085941;28;20354;-76
2022/04/24 09:49:49;;;;;;;3.05;2.10;;;16.10;91.00;;;;;;5088030;28;20064;-76
2022/04/24 09:52:20;;;;;;;6.20;2.20;;;16.20;90.90;;;;;;5054497;28;20481;-74
2022/04/24 09:54:51;;;;;;;4.28;1.90;;;16.10;90.40;;;;;;5071708;28;20135;-75
2022/04/24 09:57:19;;;;;;;2.80;1.90;;;16.20;90.70;;;;;;5085525;28;20569;-75
2022/04/24 09:59:47;;;;;;;5.03;2.08;;;16.30;91.30;;;;;;5091782;28;20479;-75
2022/04/24 10:02:15;;;;;;;3.40;1.92;;;16.40;90.50;;;;;;5091018;28;20524;-76
2022/04/24 10:04:42;;;;;;;3.90;1.90;;;16.50;90.40;;;;;;5056817;28;20037;-76
2022/04/24 10:07:10;;;;;;;2.75;2.03;;;16.70;90.00;;;;;;5059043;28;20135;-75
2022/04/24 10:09:41;;;;;;;3.28;1.90;;;16.70;89.70;;;;;;5092805;28;20044;-76
2022/04/24 10:12:15;;;;;;;4.10;2.22;;;16.50;89.30;;;;;;5091130;28;20052;-75
2022/04/24 10:15:19;;;;;;;3.38;1.90;;;16.20;88.40;;;;;;5092862;28;20036;-76
2022/04/24 10:18:03;;;;;;;3.22;1.95;;;16.40;90.30;;;;;;5065987;28;20047;-76
2022/04/24 10:20:47;;;;;;;4.15;2.03;;;16.60;89.80;;;;;;5068957;28;20048;-75
2022/04/24 10:23:13;;;;;;;3.67;1.85;;;16.90;89.40;;;;;;5076287;28;20131;-76
2022/04/24 10:25:43;;;;;;;3.65;2.00;;;17.00;89.30;;;;;;5092122;28;20118;-74
2022/04/24 10:28:16;;;;;;;3.40;2.03;;;16.80;87.50;;;;;;5091337;28;20048;-76
2022/04/24 10:30:57;;;;;;;3.83;2.10;;;16.80;87.80;;;;;;5075171;28;20344;-75
2022/04/24 10:33:28;;;;;;;4.57;2.40;;;16.90;88.10;;;;;;5092749;28;20044;-75
2022/04/24 10:35:59;;;;;;;3.22;2.33;;;16.60;87.50;;;;;;5074888;28;20530;-76
2022/04/24 10:38:26;;;;;;;3.67;2.05;;;16.50;88.50;;;;;;5093094;28;20055;-75
2022/04/24 10:41:04;;;;;;;4.03;2.30;;;16.70;87.90;;;;;;5093363;28;20043;-75
2022/04/24 10:44:09;;;;;;;5.03;2.00;;;16.70;87.70;;;;;;5094162;28;20127;-76
2022/04/24 10:46:40;;;;;;;4.03;1.92;;;16.90;87.30;;;;;;5044592;28;20055;-76
2022/04/24 10:49:11;;;;;;;3.97;1.92;;;16.70;87.20;;;;;;5091876;28;20036;-76
2022/04/24 10:51:40;;;;;;;2.40;1.70;;;17.00;87.70;;;;;;5090354;28;20070;-76
2022/04/24 10:54:08;;;;;;;3.17;1.60;;;17.10;86.60;;;;;;5092344;28;20059;-76
2022/04/24 10:56:35;;;;;;;3.17;2.00;;;17.10;85.00;;;;;;5090451;28;20090;-76
2022/04/24 10:59:16;;;;;;;2.35;1.70;;;17.00;83.20;;;;;;5090626;28;20047;-76
2022/04/24 11:01:44;;;;;;;2.55;2.08;;;16.90;84.30;;;;;;5090976;28;20054;-76
2022/04/24 11:04:12;;;;;;;2.90;1.50;;;16.90;84.50;;;;;;5092545;28;20036;-77
2022/04/24 11:06:56;;;;;;;1.77;1.30;;;17.10;85.20;;;;;;5091135;28;20559;-76
2022/04/24 11:09:23;;;;;;;3.80;1.83;;;17.60;86.10;;;;;;5090771;28;20588;-76
2022/04/24 11:11:52;;;;;;;4.93;2.10;;;17.70;85.60;;;;;;5091219;28;20503;-76
2022/04/24 11:14:23;;;;;;;3.85;1.70;;;17.80;85.60;;;;;;5091567;28;20373;-76
2022/04/24 11:16:50;;;;;;;4.10;2.40;;;17.90;85.90;;;;;;5091934;28;20072;-75
2022/04/24 11:19:25;;;;;;;3.97;2.22;;;17.30;85.30;;;;;;5074298;28;20395;-76
2022/04/24 11:22:11;;;;;;;2.78;1.90;;;17.10;86.50;;;;;;5086512;28;20040;-76
2022/04/24 11:24:38;;;;;;;8.65;2.63;;;17.30;87.30;;;;;;5058964;28;20079;-76
2022/04/24 11:27:14;;;;;;;4.93;2.67;;;17.10;87.30;;;;;;5091991;28;20119;-76
2022/04/24 11:29:43;;;;;;;5.13;2.60;;;17.00;86.50;;;;;;5091025;28;20431;-75
2022/04/24 11:32:09;;;;;;;5.40;2.70;;;16.90;87.30;;;;;;5089011;28;20384;-75
2022/04/24 11:34:36;;;;;;;4.30;2.72;;;16.90;86.90;;;;;;5090519;28;20520;-76
2022/04/24 11:37:04;;;;;;;3.97;2.45;;;16.90;88.20;;;;;;5088484;28;20052;-75
2022/04/24 11:39:31;;;;;;;4.80;2.60;;;17.00;89.40;;;;;;5070958;28;20513;-76
2022/04/24 11:41:58;;;;;;;4.22;2.60;;;17.00;89.30;;;;;;5078582;28;20044;-78
2022/04/24 11:50:13;;;;;;;4.38;2.95;;;17.40;88.00;;;;;;5088738;28;20520;-78
2022/04/24 11:52:46;;;;;;;4.65;2.17;;;17.40;88.10;;;;;;5078796;28;20037;-77
2022/04/24 11:55:15;;;;;;;4.70;2.70;;;17.60;90.00;;;;;;5088074;28;20028;-77
2022/04/24 11:57:42;;;;;;;5.45;3.00;;;17.40;88.80;;;;;;5072439;28;20032;-77
2022/04/24 12:00:12;;;;;;;5.30;2.45;;;17.10;88.70;;;;;;5088506;28;20076;-78
2022/04/24 12:02:38;;;;;;;4.57;2.90;;;17.30;90.20;;;;;;5078949;28;20079;-77
2022/04/24 12:05:09;;;;;;;4.72;3.03;;;17.00;89.70;;;;;;5090010;28;20462;-75
2022/04/24 12:07:36;;;;;;;6.47;3.60;;;17.10;90.00;;;;;;5058037;28;20048;-76
2022/04/24 12:10:09;;;;;;;8.30;3.83;;;16.90;89.30;;;;;;5089400;28;20047;-76
2022/04/24 12:12:47;;;;;;;7.13;3.38;;;16.80;89.10;;;;;;5086841;28;20051;-77
2022/04/24 12:15:17;;;;;;;5.78;3.00;;;17.00;90.20;;;;;;5080602;28;20130;-76
2022/04/24 12:17:55;;;;;;;4.00;2.88;;;16.90;89.70;;;;;;5075010;28;20040;-76
2022/04/24 12:20:22;;;;;;;4.20;2.88;;;17.00;89.70;;;;;;5077649;28;20051;-77
2022/04/24 12:22:47;;;;;;;6.55;2.92;;;17.30;90.10;;;;;;5097760;28;20457;-76
2022/04/24 12:25:18;;;;;;;7.45;2.85;;;17.30;89.70;;;;;;5078649;28;20131;-77
2022/04/24 12:27:54;;;;;;;5.50;2.38;;;17.00;89.20;;;;;;5090293;28;20032;-75
2022/04/24 12:30:20;;;;;;;;;;;16.60;89.40;;;;;;5070354;28;20519;-77
2022/04/24 12:32:46;;;;;;;4.47;2.55;;;16.60;90.40;;;;;;5083139;28;20388;-76
2022/04/24 12:35:28;;;;;;;;;;;16.60;90.50;;;;;;5072594;28;20048;-76
2022/04/24 12:37:54;;;;;;;3.58;2.72;;;16.50;90.70;;;;;;5090544;28;20046;-75
2022/04/24 12:40:21;;;;;;;3.53;2.90;;;16.30;90.50;;;;;;5084331;28;20433;-77
2022/04/24 12:43:05;;;;;;;4.13;2.95;;;16.40;90.60;;;;;;5093322;28;20047;-77
2022/04/24 12:45:32;;;;;;;3.85;2.58;;;16.50;90.40;;;;;;5094060;28;20044;-76
2022/04/24 12:47:59;;;;;;;4.85;3.13;;;16.50;90.20;;;;;;5056185;28;20032;-77
2022/04/24 12:50:24;;;;;;;;;;;16.50;90.90;;;;;;5079076;28;20044;-76
2022/04/24 12:52:50;;;;;;;4.30;2.40;;;16.60;90.50;;;;;;5091168;28;19926;-76
2022/04/24 12:55:16;;;;;;;8.45;2.80;;;17.10;90.80;;;;;;5089430;28;20086;-76
2022/04/24 12:57:43;;;;;;;6.55;3.00;;;17.00;90.80;;;;;;5092140;28;20044;-75
2022/04/24 13:00:09;;;;;;;5.03;2.40;;;16.90;90.80;;;;;;5070552;28;20048;-75
2022/04/24 13:02:34;;;;;;;;;;;17.00;90.90;;;;;;5095688;28;20047;-77